createdAt,value
2023-01-28T00:04:42.197Z,3.56
2023-01-28T00:11:05.226Z,3.55
2023-01-28T00:17:25.264Z,3.54
2023-01-28T00:23:48.347Z,3.53
2023-01-28T00:30:08.236Z,3.5
2023-01-28T00:36:31.326Z,3.47
2023-01-28T00:42:51.250Z,3.44
2023-01-28T00:49:14.159Z,3.41
2023-01-28T00:55:34.205Z,3.39
2023-01-28T01:01:57.165Z,3.42
2023-01-28T01:08:17.184Z,3.42
2023-01-28T01:14:40.212Z,3.4
2023-01-28T01:21:00.295Z,3.42
2023-01-28T01:27:23.233Z,3.41
2023-01-28T01:33:43.295Z,3.38
2023-01-28T01:40:06.233Z,3.29
2023-01-28T01:46:26.409Z,3.22
2023-01-28T01:52:49.222Z,3.06
2023-01-28T01:59:09.225Z,2.97
2023-01-28T02:05:32.259Z,2.87
2023-01-28T02:11:52.274Z,2.77
2023-01-28T02:18:15.198Z,2.72
2023-01-28T02:24:35.226Z,2.63
2023-01-28T02:30:58.226Z,2.53
2023-01-28T02:37:18.173Z,2.46
2023-01-28T02:43:41.240Z,2.42
2023-01-28T02:50:01.366Z,2.38
2023-01-28T02:56:24.244Z,2.19
2023-01-28T03:02:44.313Z,1.95
2023-01-28T03:09:07.272Z,1.65
2023-01-28T03:15:27.238Z,1.39
2023-01-28T03:21:50.249Z,1.29
2023-01-28T03:28:10.354Z,1.27
2023-01-28T03:34:33.176Z,1.26
2023-01-28T03:40:53.342Z,1.22
2023-01-28T03:47:16.282Z,1.12
2023-01-28T03:53:36.246Z,1.05
2023-01-28T03:59:59.183Z,1
2023-01-28T04:23:58.169Z,0.67
2023-01-28T04:30:18.200Z,0.58
2023-01-28T04:36:41.280Z,0.56
2023-01-28T04:43:01.210Z,0.52
2023-01-28T04:49:24.270Z,0.46
2023-01-28T04:55:44.194Z,0.43
2023-01-28T05:02:07.258Z,0.4
2023-01-28T05:08:27.159Z,0.38
2023-01-28T05:14:50.178Z,0.39
2023-01-28T05:21:13.326Z,0.37
2023-01-28T05:27:36.179Z,0.34
2023-01-28T05:33:56.222Z,0.3
2023-01-28T05:40:19.339Z,0.22
2023-01-28T05:46:39.198Z,0.14
2023-01-28T05:53:02.221Z,0.08
2023-01-28T05:59:22.241Z,0.13
2023-01-28T06:05:45.185Z,0.13
2023-01-28T06:12:05.192Z,0.22
2023-01-28T06:18:28.179Z,0.31
2023-01-28T06:24:48.210Z,0.42
2023-01-28T06:31:11.189Z,0.55
2023-01-28T06:37:31.226Z,0.62
2023-01-28T06:43:54.193Z,0.67
2023-01-28T06:50:14.513Z,0.67
2023-01-28T06:56:37.237Z,0.73
2023-01-28T07:02:57.195Z,0.86
2023-01-28T07:09:20.197Z,0.96
2023-01-28T07:15:40.237Z,1.05
2023-01-28T07:22:03.280Z,1.15
2023-01-28T07:28:23.225Z,1.19
2023-01-28T07:34:46.185Z,1.25
2023-01-28T07:41:06.179Z,1.32
2023-01-28T07:47:29.196Z,1.38
2023-01-28T07:53:49.181Z,1.45
2023-01-28T08:00:12.381Z,1.52
2023-01-28T08:06:32.249Z,1.6
2023-01-28T08:12:55.230Z,1.66
2023-01-28T08:19:15.287Z,1.71
2023-01-28T08:25:38.166Z,1.8
2023-01-28T08:31:58.214Z,1.8
2023-01-28T08:38:21.171Z,1.85
2023-01-28T08:44:41.155Z,1.92
2023-01-28T08:51:04.233Z,1.98
2023-01-28T08:57:24.218Z,2.04
2023-01-28T09:03:47.295Z,2.14
2023-01-28T09:10:07.223Z,2.21
2023-01-28T09:33:49.120Z,1.99
2023-01-28T09:40:12.192Z,2.15
2023-01-28T09:46:32.344Z,2.25
2023-01-28T09:52:55.193Z,2.26
2023-01-28T09:59:15.231Z,2.35
2023-01-28T10:05:40.764Z,2.45
2023-01-28T10:11:58.198Z,2.42
2023-01-28T10:18:21.153Z,2.48
2023-01-28T10:24:41.258Z,2.49
2023-01-28T10:31:04.293Z,2.5
2023-01-28T10:37:24.494Z,2.47
2023-01-28T10:43:48.205Z,2.5
2023-01-28T10:50:08.559Z,2.54
2023-01-28T10:56:31.255Z,2.56
2023-01-28T11:02:51.197Z,2.63
2023-01-28T11:09:14.369Z,2.57
2023-01-28T11:15:34.337Z,2.5
2023-01-28T11:21:57.548Z,2.44
2023-01-28T11:28:17.179Z,2.41
2023-01-28T11:34:40.165Z,2.6
2023-01-28T11:41:00.334Z,2.84
2023-01-28T11:47:23.210Z,2.92
2023-01-28T11:53:43.255Z,2.92
2023-01-28T12:00:06.158Z,2.83
2023-01-28T12:06:26.236Z,2.69
2023-01-28T12:12:49.211Z,2.65
2023-01-28T12:19:09.522Z,2.66
2023-01-28T12:25:32.242Z,2.77
2023-01-28T12:31:52.264Z,2.74
2023-01-28T12:38:15.297Z,2.79
2023-01-28T12:44:35.207Z,2.83
2023-01-28T12:50:58.451Z,2.84
2023-01-28T12:57:18.261Z,2.63
2023-01-28T13:03:41.237Z,2.55
2023-01-28T13:10:01.319Z,2.58
2023-01-28T13:16:36.010Z,2.52
2023-01-28T13:22:44.250Z,2.49
2023-01-28T13:29:07.194Z,2.5
2023-01-28T13:35:27.150Z,2.41
2023-01-28T13:41:50.304Z,2.47
2023-01-28T13:48:10.173Z,2.61
2023-01-28T13:54:33.179Z,2.73
2023-01-28T14:00:53.182Z,2.87
2023-01-28T14:07:17.488Z,3.15
2023-01-28T14:13:36.294Z,3.27
2023-01-28T14:19:59.202Z,3.26
2023-01-28T14:37:09.140Z,3.42
2023-01-28T14:43:32.171Z,3.45
2023-01-28T14:49:52.226Z,3.26
2023-01-28T14:56:15.346Z,3.14
2023-01-28T15:02:35.269Z,3.11
2023-01-28T15:08:58.233Z,3.1
2023-01-28T15:15:18.221Z,2.98
2023-01-28T15:21:41.235Z,2.9
2023-01-28T15:28:01.226Z,2.93
2023-01-28T15:34:24.225Z,2.87
2023-01-28T15:40:44.239Z,2.82
2023-01-28T15:47:07.245Z,2.79
2023-01-28T15:53:27.214Z,2.73
2023-01-28T15:59:50.268Z,2.54
2023-01-28T16:06:10.187Z,2.36
2023-01-28T16:12:33.203Z,1.99
2023-01-28T16:18:53.270Z,1.77
2023-01-28T16:25:16.530Z,1.61
2023-01-28T16:31:36.454Z,1.46
2023-01-28T16:37:59.280Z,1.3
2023-01-28T16:44:19.230Z,1.17
2023-01-28T16:50:42.324Z,1.05
2023-01-28T16:57:02.195Z,0.94
2023-01-28T17:03:25.247Z,0.88
2023-01-28T17:09:45.260Z,0.83
2023-01-28T17:16:08.293Z,0.8
2023-01-28T17:22:28.159Z,0.79
2023-01-28T17:28:51.200Z,0.82
2023-01-28T17:35:11.169Z,0.77
2023-01-28T17:41:34.288Z,0.69
2023-01-28T17:47:54.219Z,0.63
2023-01-28T17:54:17.189Z,0.52
2023-01-28T18:00:37.182Z,0.33
2023-01-28T18:07:00.326Z,0.19
2023-01-28T18:13:20.182Z,0.06
2023-01-28T18:19:43.293Z,-0.1
2023-01-28T18:26:03.282Z,-0.24
2023-01-28T18:32:26.180Z,-0.25
2023-01-28T18:38:46.173Z,-0.24
2023-01-28T18:45:09.248Z,-0.22
2023-01-28T18:51:30.743Z,-0.23
2023-01-28T18:57:52.298Z,-0.32
2023-01-28T19:04:12.325Z,-0.49
2023-01-28T19:10:35.191Z,-0.58
2023-01-28T19:16:55.325Z,-0.62
2023-01-28T19:23:18.224Z,-0.65
2023-01-28T19:29:38.270Z,-0.68
2023-01-28T19:52:27.201Z,-0.95
2023-01-28T19:58:50.177Z,-0.91
2023-01-28T20:05:10.250Z,-0.97
2023-01-28T20:11:33.273Z,-1.03
2023-01-28T20:17:53.225Z,-1.08
2023-01-28T20:24:16.286Z,-1.09
2023-01-28T20:30:36.230Z,-1.15
2023-01-28T20:36:59.299Z,-1.17
2023-01-28T20:43:19.170Z,-1.23
2023-01-28T20:49:42.198Z,-1.33
2023-01-28T20:56:02.198Z,-1.38
2023-01-28T21:02:25.250Z,-1.43
2023-01-28T21:08:45.216Z,-1.53
2023-01-28T21:15:08.157Z,-1.56
2023-01-28T21:21:28.217Z,-1.53
2023-01-28T21:27:51.211Z,-1.56
2023-01-28T21:34:11.207Z,-1.63
2023-01-28T21:40:34.265Z,-1.69
2023-01-28T21:46:54.172Z,-1.69
2023-01-28T21:53:17.192Z,-1.64
2023-01-28T21:59:37.247Z,-1.68
2023-01-28T22:06:00.642Z,-1.74
2023-01-28T22:12:20.229Z,-1.89
2023-01-28T22:18:43.195Z,-1.95
2023-01-28T22:25:03.222Z,-1.93
2023-01-28T22:31:26.369Z,-2.01
2023-01-28T22:37:46.277Z,-2.05
2023-01-28T22:44:09.248Z,-2.07
2023-01-28T22:50:29.209Z,-2.12
2023-01-28T22:56:52.203Z,-2.16
2023-01-28T23:19:51.201Z,-2.22
2023-01-28T23:26:11.171Z,-2.27
2023-01-28T23:32:34.228Z,-2.26
2023-01-28T23:38:54.192Z,-2.26
2023-01-28T23:45:17.301Z,-2.27
2023-01-28T23:51:37.151Z,-2.28
2023-01-28T23:58:00.265Z,-2.37
